createdAt,value
2022-08-22T00:04:12.129Z,2.83
2022-08-22T00:09:31.671Z,2.58
2022-08-22T00:14:51.282Z,2.90
2022-08-22T00:19:56.182Z,3.60
2022-08-22T00:25:28.225Z,3.40
2022-08-22T00:30:34.223Z,2.70
2022-08-22T00:35:44.953Z,2.72
2022-08-22T00:40:55.630Z,2.95
2022-08-22T00:46:19.426Z,3.08
2022-08-22T00:51:39.746Z,2.80
2022-08-22T00:57:00.116Z,2.58
2022-08-22T01:02:25.114Z,3.63
2022-08-22T01:08:02.424Z,3.40
2022-08-22T01:13:31.242Z,2.95
2022-08-22T01:18:50.290Z,4.00
2022-08-22T01:24:29.756Z,2.83
2022-08-22T01:29:56.125Z,2.78
2022-08-22T01:35:11.723Z,2.67
2022-08-22T01:40:22.840Z,3.00
2022-08-22T01:45:34.441Z,2.90
2022-08-22T01:50:39.299Z,3.00
2022-08-22T01:55:56.100Z,3.10
2022-08-22T02:01:13.112Z,3.38
2022-08-22T02:06:22.989Z,3.55
2022-08-22T02:11:38.060Z,3.33
2022-08-22T02:16:47.510Z,3.17
2022-08-22T02:22:03.578Z,3.17
2022-08-22T02:27:10.335Z,3.10
2022-08-22T02:32:38.530Z,3.28
2022-08-22T02:38:10.235Z,2.88
2022-08-22T02:43:23.223Z,3.20
2022-08-22T02:48:36.787Z,3.47
2022-08-22T02:54:01.973Z,3.80
2022-08-22T02:59:15.812Z,3.53
2022-08-22T03:04:23.348Z,3.70
2022-08-22T03:09:36.871Z,3.67
2022-08-22T03:14:44.574Z,4.00
2022-08-22T03:20:00.230Z,4.22
2022-08-22T03:25:30.746Z,3.85
2022-08-22T03:30:57.936Z,4.88
2022-08-22T03:36:11.199Z,4.97
2022-08-22T03:41:12.929Z,5.10
2022-08-22T03:46:36.015Z,4.40
2022-08-22T03:52:10.174Z,3.47
2022-08-22T03:57:48.226Z,4.55
2022-08-22T04:02:58.886Z,4.50
2022-08-22T04:08:29.012Z,5.10
2022-08-22T04:13:53.532Z,5.85
2022-08-22T04:19:34.215Z,5.38
2022-08-22T04:24:59.694Z,5.78
2022-08-22T04:30:22.162Z,8.75
2022-08-22T04:35:34.990Z,4.90
2022-08-22T04:40:50.227Z,4.85
2022-08-22T04:46:12.947Z,4.97
2022-08-22T04:51:27.520Z,6.10
2022-08-22T04:56:57.769Z,5.28
2022-08-22T05:02:06.545Z,4.75
2022-08-22T05:07:13.671Z,4.57
2022-08-22T05:12:23.018Z,4.13
2022-08-22T05:17:28.916Z,4.40
2022-08-22T05:22:36.557Z,5.03
2022-08-22T05:27:48.903Z,4.15
2022-08-22T05:33:12.263Z,4.25
2022-08-22T05:38:18.031Z,4.43
2022-08-22T05:43:23.083Z,3.47
2022-08-22T05:48:42.055Z,3.33
2022-08-22T05:53:50.771Z,2.90
2022-08-22T05:59:02.953Z,2.90
2022-08-22T06:04:35.882Z,3.40
2022-08-22T06:09:43.494Z,3.30
2022-08-22T06:14:56.957Z,2.90
2022-08-22T06:20:00.236Z,3.70
2022-08-22T06:25:12.770Z,3.17
2022-08-22T06:30:16.509Z,3.00
2022-08-22T06:35:55.424Z,3.20
2022-08-22T06:41:00.731Z,2.83
2022-08-22T06:46:02.939Z,2.72
2022-08-22T06:51:07.273Z,2.60
2022-08-22T06:56:10.037Z,3.08
2022-08-22T07:01:27.750Z,2.30
2022-08-22T07:06:34.430Z,2.75
2022-08-22T07:11:41.631Z,2.10
2022-08-22T07:17:00.030Z,2.30
2022-08-22T07:22:15.004Z,2.00
2022-08-22T07:27:56.748Z,2.10
2022-08-22T07:33:23.628Z,1.90
2022-08-22T07:38:33.496Z,1.88
2022-08-22T07:43:48.557Z,1.65
2022-08-22T07:49:09.375Z,1.80
2022-08-22T07:54:29.321Z,1.60
2022-08-22T07:59:35.066Z,1.92
2022-08-22T08:04:40.567Z,1.90
2022-08-22T08:09:50.742Z,2.08
2022-08-22T08:14:54.918Z,1.48
2022-08-22T08:19:57.339Z,1.60
2022-08-22T08:25:00.622Z,1.50
2022-08-22T08:30:15.553Z,1.52
2022-08-22T08:35:25.429Z,1.60
2022-08-22T08:40:53.279Z,1.48
2022-08-22T08:46:10.725Z,1.50
2022-08-22T08:51:50.901Z,1.40
2022-08-22T08:56:59.603Z,1.13
2022-08-22T09:02:33.909Z,1.35
2022-08-22T09:08:00.779Z,1.58
2022-08-22T09:18:59.360Z,1.30
2022-08-22T09:24:35.508Z,1.25
2022-08-22T09:29:55.273Z,1.30
2022-08-22T09:35:25.871Z,1.50
2022-08-22T09:40:44.672Z,1.30
2022-08-22T09:46:31.353Z,1.55
2022-08-22T09:51:58.120Z,1.35
2022-08-22T09:57:24.674Z,1.40
2022-08-22T10:02:57.254Z,1.30
2022-08-22T10:08:13.547Z,1.48
2022-08-22T10:13:29.679Z,0.90
2022-08-22T10:18:43.997Z,1.08
2022-08-22T10:24:25.975Z,1.05
2022-08-22T10:30:08.975Z,1.20
2022-08-22T10:45:42.438Z,1.20
2022-08-22T10:50:49.986Z,1.27
2022-08-22T10:55:58.443Z,1.30
2022-08-22T11:01:37.489Z,1.23
2022-08-22T11:07:03.253Z,1.20
2022-08-22T11:12:15.667Z,1.02
2022-08-22T11:17:54.495Z,0.90
2022-08-22T11:23:14.647Z,1.20
2022-08-22T11:28:30.137Z,1.20
2022-08-22T11:33:47.430Z,1.27
2022-08-22T11:39:23.254Z,1.23
2022-08-22T11:44:34.546Z,1.30
2022-08-22T11:49:55.403Z,1.25
2022-08-22T11:55:07.166Z,1.00
2022-08-22T12:00:45.208Z,1.00
2022-08-22T12:05:55.614Z,1.23
2022-08-22T12:11:08.680Z,1.00
2022-08-22T12:16:24.532Z,0.98
2022-08-22T12:21:50.623Z,1.30
2022-08-22T12:27:29.151Z,1.00
2022-08-22T12:32:37.012Z,1.13
2022-08-22T12:37:56.675Z,1.23
2022-08-22T12:43:13.723Z,1.08
2022-08-22T12:48:33.603Z,0.98
2022-08-22T12:54:17.319Z,1.02
2022-08-22T12:59:25.326Z,1.10
2022-08-22T13:04:33.569Z,1.42
2022-08-22T13:09:43.169Z,1.23
2022-08-22T13:14:47.516Z,1.27
2022-08-22T13:19:59.063Z,1.20
2022-08-22T13:25:29.966Z,1.10
2022-08-22T13:30:38.760Z,1.15
2022-08-22T13:35:55.240Z,0.88
2022-08-22T13:40:58.306Z,1.13
2022-08-22T13:46:07.279Z,0.95
2022-08-22T13:51:19.304Z,1.00
2022-08-22T13:56:29.839Z,1.00
2022-08-22T14:01:49.021Z,1.00
2022-08-22T14:07:04.374Z,0.90
2022-08-22T14:12:18.490Z,1.10
2022-08-22T14:17:28.152Z,1.27
2022-08-22T14:22:35.434Z,1.10
2022-08-22T14:28:00.854Z,1.00
2022-08-22T14:33:34.086Z,0.88
2022-08-22T14:38:40.636Z,1.00
2022-08-22T14:44:11.940Z,1.15
2022-08-22T14:49:20.430Z,0.90
2022-08-22T14:54:29.167Z,0.80
2022-08-22T14:59:52.264Z,1.02
2022-08-22T15:04:55.400Z,0.77
2022-08-22T15:10:07.320Z,1.10
2022-08-22T15:15:32.573Z,1.10
2022-08-22T15:20:45.373Z,1.05
2022-08-22T15:26:13.297Z,0.93
2022-08-22T15:31:18.800Z,0.90
2022-08-22T15:36:26.559Z,0.98
2022-08-22T15:41:36.315Z,0.90
2022-08-22T15:46:55.965Z,0.80
2022-08-22T15:51:59.318Z,0.95
2022-08-22T15:57:38.817Z,1.10
2022-08-22T16:02:56.345Z,1.20
2022-08-22T16:07:58.073Z,0.90
2022-08-22T16:13:14.695Z,0.70
2022-08-22T16:18:34.471Z,0.95
2022-08-22T16:23:53.543Z,1.13
2022-08-22T16:29:32.103Z,1.15
2022-08-22T16:34:42.518Z,3.63
2022-08-22T16:39:48.688Z,1.60
2022-08-22T16:45:24.462Z,1.00
2022-08-22T16:50:38.314Z,1.05
2022-08-22T16:56:24.317Z,1.27
2022-08-22T17:01:50.493Z,1.02
2022-08-22T17:07:17.199Z,1.05
2022-08-22T17:12:56.514Z,1.20
2022-08-22T17:18:21.711Z,1.23
2022-08-22T17:23:57.376Z,1.00
2022-08-22T17:29:33.881Z,1.38
2022-08-22T17:34:42.744Z,1.08
2022-08-22T17:39:57.842Z,1.05
2022-08-22T17:45:04.258Z,1.00
2022-08-22T17:50:18.535Z,1.10
2022-08-22T17:55:27.919Z,1.15
2022-08-22T18:00:34.796Z,0.98
2022-08-22T18:05:46.798Z,0.98
2022-08-22T18:11:15.365Z,1.17
2022-08-22T18:16:47.815Z,1.10
2022-08-22T18:21:59.677Z,1.35
2022-08-22T18:27:09.395Z,1.35
2022-08-22T18:32:43.707Z,1.20
2022-08-22T18:38:19.260Z,1.23
2022-08-22T18:43:31.802Z,1.30
2022-08-22T18:49:05.363Z,1.10
2022-08-22T18:54:04.724Z,1.17
2022-08-22T18:59:43.633Z,1.30
2022-08-22T19:04:56.995Z,1.40
2022-08-22T19:10:29.474Z,1.40
2022-08-22T19:15:47.669Z,1.42
2022-08-22T19:21:53.434Z,1.30
2022-08-22T19:27:07.216Z,1.30
2022-08-22T19:32:12.937Z,1.40
2022-08-22T19:37:30.740Z,1.40
2022-08-22T19:42:38.998Z,1.40
2022-08-22T19:47:42.712Z,1.40
2022-08-22T19:58:30.254Z,1.58
2022-08-22T20:03:49.378Z,1.30
2022-08-22T20:09:08.466Z,1.60
2022-08-22T20:14:25.028Z,1.45
2022-08-22T20:19:41.621Z,1.52
2022-08-22T20:24:43.436Z,1.65
2022-08-22T20:29:54.472Z,1.60
2022-08-22T20:35:00.051Z,1.40
2022-08-22T20:40:54.827Z,1.65
2022-08-22T20:46:04.360Z,2.00
2022-08-22T20:51:09.743Z,1.63
2022-08-22T20:56:12.004Z,1.90
2022-08-22T21:01:15.731Z,1.77
2022-08-22T21:11:40.562Z,1.70
2022-08-22T21:16:42.331Z,1.75
2022-08-22T21:21:44.167Z,1.50
2022-08-22T21:27:00.290Z,1.70
2022-08-22T21:32:14.489Z,1.70
2022-08-22T21:37:40.041Z,1.88
2022-08-22T21:42:45.343Z,1.77
2022-08-22T21:47:47.209Z,1.75
2022-08-22T21:52:54.790Z,1.70
2022-08-22T21:58:05.770Z,1.58
2022-08-22T22:03:07.528Z,1.80
2022-08-22T22:08:13.308Z,1.80
2022-08-22T22:13:16.728Z,1.50
2022-08-22T22:18:22.133Z,1.83
2022-08-22T22:23:25.173Z,1.88
2022-08-22T22:28:32.837Z,1.90
2022-08-22T22:33:37.292Z,1.75
2022-08-22T22:38:40.792Z,1.40
2022-08-22T22:43:42.532Z,2.33
2022-08-22T22:48:44.340Z,1.70
2022-08-22T22:53:46.548Z,1.50
2022-08-22T22:58:49.459Z,1.23
2022-08-22T23:03:59.485Z,1.77
2022-08-22T23:09:07.456Z,1.20
2022-08-22T23:14:09.165Z,1.83
2022-08-22T23:19:13.827Z,1.52
2022-08-22T23:24:16.156Z,1.98
2022-08-22T23:29:18.269Z,1.25
2022-08-22T23:34:29.103Z,2.00
2022-08-22T23:39:31.745Z,1.30
2022-08-22T23:44:35.607Z,1.70
2022-08-22T23:49:38.397Z,1.08
2022-08-22T23:54:40.312Z,1.42
2022-08-22T23:59:47.886Z,1.88
